sensor_id;sensor_type;location;lat;lon;timestamp;P1;durP1;ratioP1;P2;durP2;ratioP2
54849;SDS011;47660;51.334;12.396;2023-05-16T00:01:55;6.55;;;4.43;;
54849;SDS011;47660;51.334;12.396;2023-05-16T00:04:21;7.82;;;4.57;;
54849;SDS011;47660;51.334;12.396;2023-05-16T00:06:47;7.20;;;4.78;;
54849;SDS011;47660;51.334;12.396;2023-05-16T00:09:15;5.18;;;4.00;;
54849;SDS011;47660;51.334;12.396;2023-05-16T00:11:41;6.70;;;4.28;;
54849;SDS011;47660;51.334;12.396;2023-05-16T00:14:09;6.82;;;4.80;;
54849;SDS011;47660;51.334;12.396;2023-05-16T00:16:35;7.40;;;5.05;;
54849;SDS011;47660;51.334;12.396;2023-05-16T00:19:01;7.07;;;5.22;;
54849;SDS011;47660;51.334;12.396;2023-05-16T00:21:26;6.72;;;4.82;;
54849;SDS011;47660;51.334;12.396;2023-05-16T00:23:52;7.80;;;4.97;;
54849;SDS011;47660;51.334;12.396;2023-05-16T00:26:17;5.50;;;3.55;;
54849;SDS011;47660;51.334;12.396;2023-05-16T00:28:46;6.53;;;4.22;;
54849;SDS011;47660;51.334;12.396;2023-05-16T00:31:13;7.53;;;4.25;;
54849;SDS011;47660;51.334;12.396;2023-05-16T00:33:39;6.03;;;4.65;;
54849;SDS011;47660;51.334;12.396;2023-05-16T00:36:04;7.55;;;5.03;;
54849;SDS011;47660;51.334;12.396;2023-05-16T00:38:30;9.05;;;4.78;;
54849;SDS011;47660;51.334;12.396;2023-05-16T00:40:55;7.70;;;4.43;;
54849;SDS011;47660;51.334;12.396;2023-05-16T00:43:21;6.97;;;4.85;;
54849;SDS011;47660;51.334;12.396;2023-05-16T00:45:46;7.22;;;5.47;;
54849;SDS011;47660;51.334;12.396;2023-05-16T00:48:14;8.00;;;5.10;;
54849;SDS011;47660;51.334;12.396;2023-05-16T00:50:45;7.63;;;4.78;;
54849;SDS011;47660;51.334;12.396;2023-05-16T00:53:13;7.75;;;5.18;;
54849;SDS011;47660;51.334;12.396;2023-05-16T00:55:39;6.97;;;5.10;;
54849;SDS011;47660;51.334;12.396;2023-05-16T00:58:06;5.82;;;4.22;;
54849;SDS011;47660;51.334;12.396;2023-05-16T01:00:33;7.32;;;4.57;;
54849;SDS011;47660;51.334;12.396;2023-05-16T01:03:02;7.95;;;4.70;;
54849;SDS011;47660;51.334;12.396;2023-05-16T01:05:29;9.05;;;5.45;;
54849;SDS011;47660;51.334;12.396;2023-05-16T01:07:55;8.88;;;5.40;;
54849;SDS011;47660;51.334;12.396;2023-05-16T01:10:23;6.97;;;4.72;;
54849;SDS011;47660;51.334;12.396;2023-05-16T01:15:37;7.63;;;5.40;;
54849;SDS011;47660;51.334;12.396;2023-05-16T01:20:58;5.53;;;3.45;;
54849;SDS011;47660;51.334;12.396;2023-05-16T01:26:24;6.50;;;4.40;;
54849;SDS011;47660;51.334;12.396;2023-05-16T01:28:54;7.35;;;5.13;;
54849;SDS011;47660;51.334;12.396;2023-05-16T01:31:20;10.70;;;5.22;;
54849;SDS011;47660;51.334;12.396;2023-05-16T01:33:46;8.80;;;4.97;;
54849;SDS011;47660;51.334;12.396;2023-05-16T01:36:16;8.50;;;5.00;;
54849;SDS011;47660;51.334;12.396;2023-05-16T01:44:30;9.00;;;5.07;;
54849;SDS011;47660;51.334;12.396;2023-05-16T01:47:02;8.63;;;5.10;;
54849;SDS011;47660;51.334;12.396;2023-05-16T01:49:45;11.20;;;4.78;;
54849;SDS011;47660;51.334;12.396;2023-05-16T01:52:21;11.75;;;4.65;;
54849;SDS011;47660;51.334;12.396;2023-05-16T01:54:50;10.77;;;4.72;;
54849;SDS011;47660;51.334;12.396;2023-05-16T01:57:18;8.32;;;4.60;;
54849;SDS011;47660;51.334;12.396;2023-05-16T01:59:48;6.97;;;4.70;;
54849;SDS011;47660;51.334;12.396;2023-05-16T02:02:16;9.55;;;5.00;;
54849;SDS011;47660;51.334;12.396;2023-05-16T02:04:45;8.57;;;5.75;;
54849;SDS011;47660;51.334;12.396;2023-05-16T02:07:11;9.02;;;5.07;;
54849;SDS011;47660;51.334;12.396;2023-05-16T02:09:39;8.63;;;5.07;;
54849;SDS011;47660;51.334;12.396;2023-05-16T02:12:05;7.90;;;4.60;;
54849;SDS011;47660;51.334;12.396;2023-05-16T02:14:31;9.85;;;4.47;;
54849;SDS011;47660;51.334;12.396;2023-05-16T02:16:56;10.75;;;5.72;;
54849;SDS011;47660;51.334;12.396;2023-05-16T02:19:22;6.20;;;3.17;;
54849;SDS011;47660;51.334;12.396;2023-05-16T02:21:47;12.82;;;5.88;;
54849;SDS011;47660;51.334;12.396;2023-05-16T02:24:15;10.68;;;6.20;;
54849;SDS011;47660;51.334;12.396;2023-05-16T02:26:41;7.82;;;4.68;;
54849;SDS011;47660;51.334;12.396;2023-05-16T02:29:06;10.35;;;5.78;;
54849;SDS011;47660;51.334;12.396;2023-05-16T02:31:32;9.82;;;5.25;;
54849;SDS011;47660;51.334;12.396;2023-05-16T02:33:58;10.05;;;4.90;;
54849;SDS011;47660;51.334;12.396;2023-05-16T02:36:27;13.25;;;6.43;;
54849;SDS011;47660;51.334;12.396;2023-05-16T02:38:53;11.85;;;5.78;;
54849;SDS011;47660;51.334;12.396;2023-05-16T02:41:21;14.68;;;7.53;;
54849;SDS011;47660;51.334;12.396;2023-05-16T02:43:47;14.85;;;6.53;;
54849;SDS011;47660;51.334;12.396;2023-05-16T02:46:31;16.30;;;8.85;;
54849;SDS011;47660;51.334;12.396;2023-05-16T02:48:58;17.58;;;8.43;;
54849;SDS011;47660;51.334;12.396;2023-05-16T02:51:24;20.52;;;9.57;;
54849;SDS011;47660;51.334;12.396;2023-05-16T02:53:51;20.13;;;10.75;;
54849;SDS011;47660;51.334;12.396;2023-05-16T02:56:17;14.80;;;7.75;;
54849;SDS011;47660;51.334;12.396;2023-05-16T02:58:46;22.17;;;9.48;;
54849;SDS011;47660;51.334;12.396;2023-05-16T03:01:13;16.67;;;8.57;;
54849;SDS011;47660;51.334;12.396;2023-05-16T03:03:39;18.58;;;9.50;;
54849;SDS011;47660;51.334;12.396;2023-05-16T03:06:05;21.67;;;10.63;;
54849;SDS011;47660;51.334;12.396;2023-05-16T03:08:31;24.17;;;10.27;;
54849;SDS011;47660;51.334;12.396;2023-05-16T03:10:56;19.92;;;10.00;;
54849;SDS011;47660;51.334;12.396;2023-05-16T03:13:22;19.98;;;9.45;;
54849;SDS011;47660;51.334;12.396;2023-05-16T03:15:47;20.08;;;10.02;;
54849;SDS011;47660;51.334;12.396;2023-05-16T03:18:14;26.00;;;11.55;;
54849;SDS011;47660;51.334;12.396;2023-05-16T03:20:39;21.98;;;10.65;;
54849;SDS011;47660;51.334;12.396;2023-05-16T03:23:07;16.20;;;8.18;;
54849;SDS011;47660;51.334;12.396;2023-05-16T03:25:33;21.42;;;10.93;;
54849;SDS011;47660;51.334;12.396;2023-05-16T03:28:00;19.58;;;9.80;;
54849;SDS011;47660;51.334;12.396;2023-05-16T03:30:27;18.73;;;9.27;;
54849;SDS011;47660;51.334;12.396;2023-05-16T03:32:55;22.48;;;10.63;;
54849;SDS011;47660;51.334;12.396;2023-05-16T03:35:20;13.70;;;7.75;;
54849;SDS011;47660;51.334;12.396;2023-05-16T03:37:46;21.92;;;9.75;;
54849;SDS011;47660;51.334;12.396;2023-05-16T03:40:12;19.15;;;9.63;;
54849;SDS011;47660;51.334;12.396;2023-05-16T03:42:37;20.95;;;9.07;;
54849;SDS011;47660;51.334;12.396;2023-05-16T03:45:06;26.13;;;11.15;;
54849;SDS011;47660;51.334;12.396;2023-05-16T03:47:32;19.60;;;10.75;;
54849;SDS011;47660;51.334;12.396;2023-05-16T03:49:58;20.58;;;10.40;;
54849;SDS011;47660;51.334;12.396;2023-05-16T03:52:24;20.17;;;9.73;;
54849;SDS011;47660;51.334;12.396;2023-05-16T03:54:50;19.27;;;10.20;;
54849;SDS011;47660;51.334;12.396;2023-05-16T03:57:15;22.40;;;9.93;;
54849;SDS011;47660;51.334;12.396;2023-05-16T03:59:43;20.63;;;9.15;;
54849;SDS011;47660;51.334;12.396;2023-05-16T04:02:08;22.50;;;9.57;;
54849;SDS011;47660;51.334;12.396;2023-05-16T04:04:34;15.60;;;8.68;;
54849;SDS011;47660;51.334;12.396;2023-05-16T04:07:00;17.60;;;8.45;;
54849;SDS011;47660;51.334;12.396;2023-05-16T04:09:26;19.10;;;8.85;;
54849;SDS011;47660;51.334;12.396;2023-05-16T04:11:51;23.00;;;8.07;;
54849;SDS011;47660;51.334;12.396;2023-05-16T04:14:17;16.00;;;8.02;;
54849;SDS011;47660;51.334;12.396;2023-05-16T04:16:46;13.90;;;7.22;;
54849;SDS011;47660;51.334;12.396;2023-05-16T04:19:11;15.07;;;7.95;;
54849;SDS011;47660;51.334;12.396;2023-05-16T04:21:39;16.05;;;8.50;;
54849;SDS011;47660;51.334;12.396;2023-05-16T04:24:07;15.85;;;7.85;;
54849;SDS011;47660;51.334;12.396;2023-05-16T04:26:32;13.00;;;7.15;;
54849;SDS011;47660;51.334;12.396;2023-05-16T04:29:01;21.80;;;9.57;;
54849;SDS011;47660;51.334;12.396;2023-05-16T04:31:30;19.38;;;8.77;;
54849;SDS011;47660;51.334;12.396;2023-05-16T04:33:55;16.25;;;7.55;;
54849;SDS011;47660;51.334;12.396;2023-05-16T04:36:24;18.83;;;8.98;;
54849;SDS011;47660;51.334;12.396;2023-05-16T04:38:54;21.02;;;8.52;;
54849;SDS011;47660;51.334;12.396;2023-05-16T04:41:20;19.52;;;8.95;;
54849;SDS011;47660;51.334;12.396;2023-05-16T04:43:46;15.82;;;8.13;;
54849;SDS011;47660;51.334;12.396;2023-05-16T04:46:12;17.90;;;8.43;;
54849;SDS011;47660;51.334;12.396;2023-05-16T04:48:39;16.08;;;7.88;;
54849;SDS011;47660;51.334;12.396;2023-05-16T04:51:05;18.75;;;8.77;;
54849;SDS011;47660;51.334;12.396;2023-05-16T04:53:31;15.48;;;7.38;;
54849;SDS011;47660;51.334;12.396;2023-05-16T04:55:56;13.65;;;7.57;;
54849;SDS011;47660;51.334;12.396;2023-05-16T04:58:24;16.95;;;7.30;;
54849;SDS011;47660;51.334;12.396;2023-05-16T05:00:51;13.57;;;7.20;;
54849;SDS011;47660;51.334;12.396;2023-05-16T05:03:19;13.93;;;7.35;;
54849;SDS011;47660;51.334;12.396;2023-05-16T05:05:45;18.52;;;8.98;;
54849;SDS011;47660;51.334;12.396;2023-05-16T05:08:11;16.40;;;8.75;;
54849;SDS011;47660;51.334;12.396;2023-05-16T05:10:37;18.10;;;8.82;;
54849;SDS011;47660;51.334;12.396;2023-05-16T05:13:02;15.25;;;7.47;;
54849;SDS011;47660;51.334;12.396;2023-05-16T05:15:28;13.75;;;7.22;;
54849;SDS011;47660;51.334;12.396;2023-05-16T05:17:54;12.65;;;6.45;;
54849;SDS011;47660;51.334;12.396;2023-05-16T05:20:20;12.35;;;6.30;;
54849;SDS011;47660;51.334;12.396;2023-05-16T05:22:45;10.85;;;6.15;;
54849;SDS011;47660;51.334;12.396;2023-05-16T05:25:11;6.55;;;3.42;;
54849;SDS011;47660;51.334;12.396;2023-05-16T05:27:36;13.27;;;6.10;;
54849;SDS011;47660;51.334;12.396;2023-05-16T05:30:04;12.82;;;5.70;;
54849;SDS011;47660;51.334;12.396;2023-05-16T05:32:32;10.00;;;5.18;;
54849;SDS011;47660;51.334;12.396;2023-05-16T05:34:58;9.73;;;5.35;;
54849;SDS011;47660;51.334;12.396;2023-05-16T05:37:26;8.95;;;5.43;;
54849;SDS011;47660;51.334;12.396;2023-05-16T05:39:51;9.82;;;4.97;;
54849;SDS011;47660;51.334;12.396;2023-05-16T05:42:19;5.38;;;3.35;;
54849;SDS011;47660;51.334;12.396;2023-05-16T05:44:45;7.30;;;4.50;;
54849;SDS011;47660;51.334;12.396;2023-05-16T05:47:12;7.75;;;4.25;;
54849;SDS011;47660;51.334;12.396;2023-05-16T05:49:40;11.90;;;5.43;;
54849;SDS011;47660;51.334;12.396;2023-05-16T05:52:06;9.57;;;4.07;;
54849;SDS011;47660;51.334;12.396;2023-05-16T05:54:36;7.40;;;3.70;;
54849;SDS011;47660;51.334;12.396;2023-05-16T05:57:02;6.22;;;3.55;;
54849;SDS011;47660;51.334;12.396;2023-05-16T05:59:30;4.55;;;2.85;;
54849;SDS011;47660;51.334;12.396;2023-05-16T06:01:55;6.00;;;3.53;;
54849;SDS011;47660;51.334;12.396;2023-05-16T06:04:20;6.82;;;3.85;;
54849;SDS011;47660;51.334;12.396;2023-05-16T06:06:48;4.68;;;3.10;;
54849;SDS011;47660;51.334;12.396;2023-05-16T06:09:16;6.53;;;3.10;;
54849;SDS011;47660;51.334;12.396;2023-05-16T06:11:48;10.15;;;3.38;;
54849;SDS011;47660;51.334;12.396;2023-05-16T06:14:16;3.40;;;1.98;;
54849;SDS011;47660;51.334;12.396;2023-05-16T06:16:41;4.80;;;2.28;;
54849;SDS011;47660;51.334;12.396;2023-05-16T06:19:09;3.15;;;2.28;;
54849;SDS011;47660;51.334;12.396;2023-05-16T06:21:36;5.43;;;2.92;;
54849;SDS011;47660;51.334;12.396;2023-05-16T06:24:04;4.70;;;3.28;;
54849;SDS011;47660;51.334;12.396;2023-05-16T06:26:29;4.90;;;2.70;;
54849;SDS011;47660;51.334;12.396;2023-05-16T06:29:00;4.65;;;2.63;;
54849;SDS011;47660;51.334;12.396;2023-05-16T06:31:26;3.63;;;2.80;;
54849;SDS011;47660;51.334;12.396;2023-05-16T06:33:51;4.90;;;2.50;;
54849;SDS011;47660;51.334;12.396;2023-05-16T06:36:18;5.13;;;2.40;;
54849;SDS011;47660;51.334;12.396;2023-05-16T06:38:43;5.18;;;2.67;;
54849;SDS011;47660;51.334;12.396;2023-05-16T06:41:09;4.05;;;1.92;;
54849;SDS011;47660;51.334;12.396;2023-05-16T06:43:34;4.45;;;2.33;;
54849;SDS011;47660;51.334;12.396;2023-05-16T06:46:02;3.40;;;2.22;;
54849;SDS011;47660;51.334;12.396;2023-05-16T06:48:28;4.25;;;2.15;;
54849;SDS011;47660;51.334;12.396;2023-05-16T06:50:56;5.43;;;2.80;;
54849;SDS011;47660;51.334;12.396;2023-05-16T06:53:22;5.20;;;2.75;;
54849;SDS011;47660;51.334;12.396;2023-05-16T06:55:51;3.53;;;2.30;;
54849;SDS011;47660;51.334;12.396;2023-05-16T06:58:16;4.18;;;2.28;;
54849;SDS011;47660;51.334;12.396;2023-05-16T07:00:42;4.53;;;2.33;;
54849;SDS011;47660;51.334;12.396;2023-05-16T07:03:08;3.58;;;2.60;;
54849;SDS011;47660;51.334;12.396;2023-05-16T07:05:33;4.50;;;2.25;;
54849;SDS011;47660;51.334;12.396;2023-05-16T07:07:59;10.13;;;4.72;;
54849;SDS011;47660;51.334;12.396;2023-05-16T07:10:26;3.35;;;2.20;;
54849;SDS011;47660;51.334;12.396;2023-05-16T07:12:52;5.38;;;2.38;;
54849;SDS011;47660;51.334;12.396;2023-05-16T07:15:17;3.67;;;2.35;;
54849;SDS011;47660;51.334;12.396;2023-05-16T07:17:45;2.92;;;2.25;;
54849;SDS011;47660;51.334;12.396;2023-05-16T07:20:11;4.88;;;2.13;;
54849;SDS011;47660;51.334;12.396;2023-05-16T07:22:39;3.78;;;1.98;;
54849;SDS011;47660;51.334;12.396;2023-05-16T07:25:05;4.43;;;2.50;;
54849;SDS011;47660;51.334;12.396;2023-05-16T07:27:36;2.70;;;2.08;;
54849;SDS011;47660;51.334;12.396;2023-05-16T07:30:05;3.05;;;1.90;;
54849;SDS011;47660;51.334;12.396;2023-05-16T07:32:33;4.00;;;2.50;;
54849;SDS011;47660;51.334;12.396;2023-05-16T07:34:58;4.05;;;2.22;;
54849;SDS011;47660;51.334;12.396;2023-05-16T07:37:24;4.85;;;1.95;;
54849;SDS011;47660;51.334;12.396;2023-05-16T07:39:50;2.60;;;1.75;;
54849;SDS011;47660;51.334;12.396;2023-05-16T07:42:20;5.30;;;2.35;;
54849;SDS011;47660;51.334;12.396;2023-05-16T07:44:47;5.10;;;2.17;;
54849;SDS011;47660;51.334;12.396;2023-05-16T07:47:15;3.92;;;2.15;;
54849;SDS011;47660;51.334;12.396;2023-05-16T07:49:43;3.08;;;2.08;;
54849;SDS011;47660;51.334;12.396;2023-05-16T07:52:09;3.95;;;2.33;;
54849;SDS011;47660;51.334;12.396;2023-05-16T07:54:34;3.88;;;2.25;;
54849;SDS011;47660;51.334;12.396;2023-05-16T07:57:00;4.68;;;2.30;;
54849;SDS011;47660;51.334;12.396;2023-05-16T07:59:26;2.67;;;1.95;;
54849;SDS011;47660;51.334;12.396;2023-05-16T08:01:52;5.05;;;2.30;;
54849;SDS011;47660;51.334;12.396;2023-05-16T08:04:18;4.07;;;2.20;;
54849;SDS011;47660;51.334;12.396;2023-05-16T08:06:44;5.05;;;2.53;;
54849;SDS011;47660;51.334;12.396;2023-05-16T08:09:10;5.45;;;2.22;;
54849;SDS011;47660;51.334;12.396;2023-05-16T08:11:35;5.28;;;2.55;;
54849;SDS011;47660;51.334;12.396;2023-05-16T08:14:01;4.78;;;2.13;;
54849;SDS011;47660;51.334;12.396;2023-05-16T08:16:29;3.70;;;1.65;;
54849;SDS011;47660;51.334;12.396;2023-05-16T08:18:55;3.13;;;1.90;;
54849;SDS011;47660;51.334;12.396;2023-05-16T08:21:23;5.75;;;2.05;;
54849;SDS011;47660;51.334;12.396;2023-05-16T08:23:51;2.05;;;1.38;;
54849;SDS011;47660;51.334;12.396;2023-05-16T08:26:19;4.07;;;1.52;;
54849;SDS011;47660;51.334;12.396;2023-05-16T08:28:47;3.72;;;1.70;;
54849;SDS011;47660;51.334;12.396;2023-05-16T08:31:14;3.20;;;1.60;;
54849;SDS011;47660;51.334;12.396;2023-05-16T08:33:40;3.85;;;1.63;;
54849;SDS011;47660;51.334;12.396;2023-05-16T08:36:08;2.78;;;1.92;;
54849;SDS011;47660;51.334;12.396;2023-05-16T08:38:34;3.88;;;1.95;;
54849;SDS011;47660;51.334;12.396;2023-05-16T08:40:59;1.67;;;1.50;;
54849;SDS011;47660;51.334;12.396;2023-05-16T08:43:25;1.48;;;0.90;;
54849;SDS011;47660;51.334;12.396;2023-05-16T08:45:50;2.22;;;1.38;;
54849;SDS011;47660;51.334;12.396;2023-05-16T08:48:16;2.90;;;1.30;;
54849;SDS011;47660;51.334;12.396;2023-05-16T08:50:47;3.33;;;1.27;;
54849;SDS011;47660;51.334;12.396;2023-05-16T08:53:13;1.80;;;1.40;;
54849;SDS011;47660;51.334;12.396;2023-05-16T08:55:42;1.70;;;1.02;;
54849;SDS011;47660;51.334;12.396;2023-05-16T08:58:09;1.23;;;1.10;;
54849;SDS011;47660;51.334;12.396;2023-05-16T09:00:37;2.50;;;1.25;;
54849;SDS011;47660;51.334;12.396;2023-05-16T09:03:04;6.28;;;1.20;;
54849;SDS011;47660;51.334;12.396;2023-05-16T09:05:30;1.60;;;1.27;;
54849;SDS011;47660;51.334;12.396;2023-05-16T09:07:57;2.15;;;1.15;;
54849;SDS011;47660;51.334;12.396;2023-05-16T09:10:25;2.33;;;1.05;;
54849;SDS011;47660;51.334;12.396;2023-05-16T09:12:52;3.67;;;1.08;;
54849;SDS011;47660;51.334;12.396;2023-05-16T09:15:18;1.65;;;1.17;;
54849;SDS011;47660;51.334;12.396;2023-05-16T09:17:47;1.02;;;0.80;;
54849;SDS011;47660;51.334;12.396;2023-05-16T09:20:16;1.33;;;1.00;;
54849;SDS011;47660;51.334;12.396;2023-05-16T09:22:54;1.92;;;1.15;;
54849;SDS011;47660;51.334;12.396;2023-05-16T09:25:30;4.30;;;2.00;;
54849;SDS011;47660;51.334;12.396;2023-05-16T09:27:56;2.40;;;1.52;;
54849;SDS011;47660;51.334;12.396;2023-05-16T09:30:29;2.50;;;1.17;;
54849;SDS011;47660;51.334;12.396;2023-05-16T09:32:56;1.50;;;1.30;;
54849;SDS011;47660;51.334;12.396;2023-05-16T09:35:24;2.90;;;1.10;;
54849;SDS011;47660;51.334;12.396;2023-05-16T09:37:50;3.70;;;1.35;;
54849;SDS011;47660;51.334;12.396;2023-05-16T09:40:21;1.40;;;1.10;;
54849;SDS011;47660;51.334;12.396;2023-05-16T09:43:03;2.00;;;1.35;;
54849;SDS011;47660;51.334;12.396;2023-05-16T09:45:32;2.10;;;1.20;;
54849;SDS011;47660;51.334;12.396;2023-05-16T09:48:07;2.47;;;1.20;;
54849;SDS011;47660;51.334;12.396;2023-05-16T09:50:39;2.25;;;1.20;;
54849;SDS011;47660;51.334;12.396;2023-05-16T09:53:07;3.65;;;1.45;;
54849;SDS011;47660;51.334;12.396;2023-05-16T09:55:40;1.25;;;1.10;;
54849;SDS011;47660;51.334;12.396;2023-05-16T09:58:08;2.00;;;1.25;;
54849;SDS011;47660;51.334;12.396;2023-05-16T10:00:34;2.10;;;1.60;;
54849;SDS011;47660;51.334;12.396;2023-05-16T10:03:02;2.33;;;1.30;;
54849;SDS011;47660;51.334;12.396;2023-05-16T10:05:30;1.25;;;0.95;;
54849;SDS011;47660;51.334;12.396;2023-05-16T10:07:56;1.52;;;1.10;;
54849;SDS011;47660;51.334;12.396;2023-05-16T10:10:22;1.50;;;1.20;;
54849;SDS011;47660;51.334;12.396;2023-05-16T10:12:49;2.95;;;1.02;;
54849;SDS011;47660;51.334;12.396;2023-05-16T10:15:16;3.70;;;1.30;;
54849;SDS011;47660;51.334;12.396;2023-05-16T10:17:42;2.17;;;0.90;;
54849;SDS011;47660;51.334;12.396;2023-05-16T10:20:10;4.57;;;0.95;;
54849;SDS011;47660;51.334;12.396;2023-05-16T10:22:41;2.38;;;1.00;;
54849;SDS011;47660;51.334;12.396;2023-05-16T10:25:19;1.45;;;0.90;;
54849;SDS011;47660;51.334;12.396;2023-05-16T10:27:52;1.98;;;1.10;;
54849;SDS011;47660;51.334;12.396;2023-05-16T10:30:22;1.55;;;0.88;;
54849;SDS011;47660;51.334;12.396;2023-05-16T10:32:47;6.72;;;1.75;;
54849;SDS011;47660;51.334;12.396;2023-05-16T10:35:15;4.95;;;1.30;;
54849;SDS011;47660;51.334;12.396;2023-05-16T10:37:41;4.68;;;1.35;;
54849;SDS011;47660;51.334;12.396;2023-05-16T10:40:15;1.65;;;0.90;;
54849;SDS011;47660;51.334;12.396;2023-05-16T10:42:54;2.05;;;0.85;;
54849;SDS011;47660;51.334;12.396;2023-05-16T10:45:23;1.63;;;0.93;;
54849;SDS011;47660;51.334;12.396;2023-05-16T10:50:38;3.22;;;1.48;;
54849;SDS011;47660;51.334;12.396;2023-05-16T10:55:39;4.15;;;1.27;;
54849;SDS011;47660;51.334;12.396;2023-05-16T10:58:09;3.67;;;1.02;;
54849;SDS011;47660;51.334;12.396;2023-05-16T11:00:34;4.47;;;1.33;;
54849;SDS011;47660;51.334;12.396;2023-05-16T11:03:03;8.20;;;3.38;;
54849;SDS011;47660;51.334;12.396;2023-05-16T11:05:30;4.95;;;1.23;;
54849;SDS011;47660;51.334;12.396;2023-05-16T11:10:48;3.00;;;1.10;;
54849;SDS011;47660;51.334;12.396;2023-05-16T11:13:13;1.58;;;0.90;;
54849;SDS011;47660;51.334;12.396;2023-05-16T11:15:43;3.65;;;1.00;;
54849;SDS011;47660;51.334;12.396;2023-05-16T11:18:13;2.25;;;1.27;;
54849;SDS011;47660;51.334;12.396;2023-05-16T11:20:40;5.13;;;1.17;;
54849;SDS011;47660;51.334;12.396;2023-05-16T11:25:47;2.38;;;0.93;;
54849;SDS011;47660;51.334;12.396;2023-05-16T11:28:14;3.33;;;0.90;;
54849;SDS011;47660;51.334;12.396;2023-05-16T11:30:45;3.53;;;1.20;;
54849;SDS011;47660;51.334;12.396;2023-05-16T11:33:13;1.95;;;0.90;;
54849;SDS011;47660;51.334;12.396;2023-05-16T11:35:39;2.88;;;0.90;;
54849;SDS011;47660;51.334;12.396;2023-05-16T11:38:10;2.92;;;1.30;;
54849;SDS011;47660;51.334;12.396;2023-05-16T11:40:40;3.83;;;1.10;;
54849;SDS011;47660;51.334;12.396;2023-05-16T11:43:06;1.40;;;1.10;;
54849;SDS011;47660;51.334;12.396;2023-05-16T11:45:32;4.38;;;1.20;;
54849;SDS011;47660;51.334;12.396;2023-05-16T11:48:00;5.65;;;1.50;;
54849;SDS011;47660;51.334;12.396;2023-05-16T11:50:28;1.70;;;1.30;;
54849;SDS011;47660;51.334;12.396;2023-05-16T11:52:54;52.80;;;11.25;;
54849;SDS011;47660;51.334;12.396;2023-05-16T11:55:22;3.85;;;1.42;;
54849;SDS011;47660;51.334;12.396;2023-05-16T11:57:52;6.72;;;1.40;;
54849;SDS011;47660;51.334;12.396;2023-05-16T12:00:21;6.28;;;1.63;;
54849;SDS011;47660;51.334;12.396;2023-05-16T12:02:49;5.15;;;1.52;;
54849;SDS011;47660;51.334;12.396;2023-05-16T12:05:15;4.68;;;1.00;;
54849;SDS011;47660;51.334;12.396;2023-05-16T12:07:43;3.97;;;1.30;;
54849;SDS011;47660;51.334;12.396;2023-05-16T12:10:10;3.97;;;1.42;;
54849;SDS011;47660;51.334;12.396;2023-05-16T12:12:37;3.70;;;1.33;;
54849;SDS011;47660;51.334;12.396;2023-05-16T12:15:04;5.05;;;1.13;;
54849;SDS011;47660;51.334;12.396;2023-05-16T12:17:35;8.30;;;1.40;;
54849;SDS011;47660;51.334;12.396;2023-05-16T12:20:02;5.32;;;1.15;;
54849;SDS011;47660;51.334;12.396;2023-05-16T12:22:38;6.93;;;1.40;;
54849;SDS011;47660;51.334;12.396;2023-05-16T12:25:20;5.90;;;1.27;;
54849;SDS011;47660;51.334;12.396;2023-05-16T12:27:58;6.90;;;1.50;;
54849;SDS011;47660;51.334;12.396;2023-05-16T12:30:25;5.60;;;1.48;;
54849;SDS011;47660;51.334;12.396;2023-05-16T12:32:55;6.80;;;1.55;;
54849;SDS011;47660;51.334;12.396;2023-05-16T12:35:22;4.57;;;1.33;;
54849;SDS011;47660;51.334;12.396;2023-05-16T12:37:49;2.83;;;1.27;;
54849;SDS011;47660;51.334;12.396;2023-05-16T12:40:15;5.90;;;1.20;;
54849;SDS011;47660;51.334;12.396;2023-05-16T12:42:44;3.72;;;0.90;;
54849;SDS011;47660;51.334;12.396;2023-05-16T12:45:16;8.13;;;1.35;;
54849;SDS011;47660;51.334;12.396;2023-05-16T12:47:42;2.38;;;0.77;;
54849;SDS011;47660;51.334;12.396;2023-05-16T12:50:08;3.58;;;0.90;;
54849;SDS011;47660;51.334;12.396;2023-05-16T12:52:36;5.22;;;1.65;;
54849;SDS011;47660;51.334;12.396;2023-05-16T12:55:03;1.45;;;0.73;;
54849;SDS011;47660;51.334;12.396;2023-05-16T12:57:34;3.97;;;0.98;;
54849;SDS011;47660;51.334;12.396;2023-05-16T12:59:59;3.45;;;0.80;;
54849;SDS011;47660;51.334;12.396;2023-05-16T13:02:25;4.90;;;0.80;;
54849;SDS011;47660;51.334;12.396;2023-05-16T13:04:50;5.75;;;1.25;;
54849;SDS011;47660;51.334;12.396;2023-05-16T13:07:16;6.22;;;1.23;;
54849;SDS011;47660;51.334;12.396;2023-05-16T13:09:41;4.93;;;1.40;;
54849;SDS011;47660;51.334;12.396;2023-05-16T13:12:07;3.78;;;1.05;;
54849;SDS011;47660;51.334;12.396;2023-05-16T13:14:33;4.38;;;0.70;;
54849;SDS011;47660;51.334;12.396;2023-05-16T13:16:58;3.72;;;1.13;;
54849;SDS011;47660;51.334;12.396;2023-05-16T13:19:23;3.63;;;1.25;;
54849;SDS011;47660;51.334;12.396;2023-05-16T13:21:49;3.03;;;1.08;;
54849;SDS011;47660;51.334;12.396;2023-05-16T13:24:14;4.82;;;1.15;;
54849;SDS011;47660;51.334;12.396;2023-05-16T13:26:40;3.55;;;0.80;;
54849;SDS011;47660;51.334;12.396;2023-05-16T13:29:06;1.52;;;0.52;;
54849;SDS011;47660;51.334;12.396;2023-05-16T13:31:35;4.03;;;1.00;;
54849;SDS011;47660;51.334;12.396;2023-05-16T13:34:05;3.67;;;0.80;;
54849;SDS011;47660;51.334;12.396;2023-05-16T13:36:33;3.58;;;1.20;;
54849;SDS011;47660;51.334;12.396;2023-05-16T13:38:58;2.33;;;1.00;;
54849;SDS011;47660;51.334;12.396;2023-05-16T13:41:24;3.58;;;1.08;;
54849;SDS011;47660;51.334;12.396;2023-05-16T13:43:50;2.17;;;0.90;;
54849;SDS011;47660;51.334;12.396;2023-05-16T13:46:15;1.27;;;0.88;;
54849;SDS011;47660;51.334;12.396;2023-05-16T13:48:41;3.15;;;0.75;;
54849;SDS011;47660;51.334;12.396;2023-05-16T13:51:06;2.08;;;1.00;;
54849;SDS011;47660;51.334;12.396;2023-05-16T13:53:32;2.78;;;0.88;;
54849;SDS011;47660;51.334;12.396;2023-05-16T13:55:57;1.42;;;0.80;;
54849;SDS011;47660;51.334;12.396;2023-05-16T13:58:22;2.90;;;0.82;;
54849;SDS011;47660;51.334;12.396;2023-05-16T14:00:48;2.65;;;0.70;;
54849;SDS011;47660;51.334;12.396;2023-05-16T14:03:14;3.10;;;0.90;;
54849;SDS011;47660;51.334;12.396;2023-05-16T14:05:40;1.85;;;0.77;;
54849;SDS011;47660;51.334;12.396;2023-05-16T14:08:05;2.90;;;0.60;;
54849;SDS011;47660;51.334;12.396;2023-05-16T14:10:31;1.88;;;0.70;;
54849;SDS011;47660;51.334;12.396;2023-05-16T14:12:57;3.83;;;0.82;;
54849;SDS011;47660;51.334;12.396;2023-05-16T14:15:22;1.98;;;0.93;;
54849;SDS011;47660;51.334;12.396;2023-05-16T14:17:50;4.57;;;1.00;;
54849;SDS011;47660;51.334;12.396;2023-05-16T14:20:18;4.32;;;1.00;;
54849;SDS011;47660;51.334;12.396;2023-05-16T14:22:44;3.58;;;1.00;;
54849;SDS011;47660;51.334;12.396;2023-05-16T14:25:09;2.83;;;0.88;;
54849;SDS011;47660;51.334;12.396;2023-05-16T14:27:34;5.32;;;0.90;;
54849;SDS011;47660;51.334;12.396;2023-05-16T14:30:03;3.83;;;0.90;;
54849;SDS011;47660;51.334;12.396;2023-05-16T14:32:34;2.00;;;0.82;;
54849;SDS011;47660;51.334;12.396;2023-05-16T14:34:59;3.17;;;0.80;;
54849;SDS011;47660;51.334;12.396;2023-05-16T14:37:25;3.55;;;0.70;;
54849;SDS011;47660;51.334;12.396;2023-05-16T14:39:51;3.30;;;0.90;;
54849;SDS011;47660;51.334;12.396;2023-05-16T14:42:16;3.10;;;0.80;;
54849;SDS011;47660;51.334;12.396;2023-05-16T14:44:42;4.15;;;0.88;;
54849;SDS011;47660;51.334;12.396;2023-05-16T14:47:08;1.65;;;0.65;;
54849;SDS011;47660;51.334;12.396;2023-05-16T14:49:33;8.68;;;1.63;;
54849;SDS011;47660;51.334;12.396;2023-05-16T14:51:59;2.80;;;0.80;;
54849;SDS011;47660;51.334;12.396;2023-05-16T14:54:25;4.72;;;0.85;;
54849;SDS011;47660;51.334;12.396;2023-05-16T14:56:50;4.15;;;0.60;;